CheckWX is a tool to help pilots better visualize weather data.  It is not intended as a substitute for an official pre-flight weather briefing.

18:36:25 UTC

CYIV METAR
Island Lake Airport
Island Lake, Canada
Current

36 mins ago

CYIV 241800Z 28009KT 15SM BKN040 13/04 A2951 RMK SC6 SLP000 DENSITY ALT 1200FT
Observed
Apr-24 @ 18:00 UTC
Wind
  • 280° at 9 KTS
Visibility
15 SM
Flight Rules
VFR
Cloud Levels
  • Broken at 4,000' AGL
Temperature
13°C / 55°F
Dewpoint
C / 39°F
Humidity
55%
Altimeter
29.51" Hg
Pressure
999.32 hPa
Previous

2 hours ago

CYIV 241648Z 28006KT 15SM BKN050 11/05 A2951 RMK SC6 TCU ASOCTD SH E SLP001 DENSITY ALT 1000FT
Observed
Apr-24 @ 16:48 UTC
Wind
  • 280° at 6 KTS
Visibility
15 SM
Flight Rules
VFR
Cloud Levels
  • Broken at 5,000' AGL
Temperature
11°C / 52°F
Dewpoint
C / 41°F
Humidity
67%
Altimeter
29.51" Hg
Pressure
999.32 hPa
Previous

2 hours ago

CYIV 241621Z 30006KT 15SM -SHRA BKN050 11/05 A2951 RMK SC6 TCU ASOCTD VIA CYWG SLP002 DENSITY ALT 1000FT
Observed
Apr-24 @ 16:21 UTC
Wind
  • 300° at 6 KTS
Visibility
15 SM
Flight Rules
VFR
Conditions
Light Rain
Cloud Levels
  • Broken at 5,000' AGL
Temperature
11°C / 52°F
Dewpoint
C / 41°F
Humidity
67%
Altimeter
29.51" Hg
Pressure
999.32 hPa